sensor_id;sensor_type;location;lat;lon;timestamp;temperature;humidity
15413;DHT22;7805;49.554;7.632;2022-10-15T00:00:28;16.50;99.90
15413;DHT22;7805;49.554;7.632;2022-10-15T00:02:54;16.50;99.90
15413;DHT22;7805;49.554;7.632;2022-10-15T00:05:20;16.50;99.90
15413;DHT22;7805;49.554;7.632;2022-10-15T00:07:46;16.50;99.90
15413;DHT22;7805;49.554;7.632;2022-10-15T00:10:12;16.20;99.90
15413;DHT22;7805;49.554;7.632;2022-10-15T00:12:38;16.50;99.90
15413;DHT22;7805;49.554;7.632;2022-10-15T00:15:04;16.60;99.90
15413;DHT22;7805;49.554;7.632;2022-10-15T00:17:31;16.60;99.90
15413;DHT22;7805;49.554;7.632;2022-10-15T00:19:57;16.60;99.90
15413;DHT22;7805;49.554;7.632;2022-10-15T00:22:22;16.50;99.90
15413;DHT22;7805;49.554;7.632;2022-10-15T00:24:48;16.50;99.90
15413;DHT22;7805;49.554;7.632;2022-10-15T00:27:13;16.40;99.90
15413;DHT22;7805;49.554;7.632;2022-10-15T00:29:39;16.40;99.90
15413;DHT22;7805;49.554;7.632;2022-10-15T00:32:05;16.40;99.90
15413;DHT22;7805;49.554;7.632;2022-10-15T00:34:30;16.40;99.90
15413;DHT22;7805;49.554;7.632;2022-10-15T00:36:56;16.40;99.90
15413;DHT22;7805;49.554;7.632;2022-10-15T00:39:21;16.40;99.90
15413;DHT22;7805;49.554;7.632;2022-10-15T00:41:47;16.50;99.90
15413;DHT22;7805;49.554;7.632;2022-10-15T00:47:15;16.50;99.90
15413;DHT22;7805;49.554;7.632;2022-10-15T00:49:50;16.50;99.90
15413;DHT22;7805;49.554;7.632;2022-10-15T00:52:24;17.70;99.90
15413;DHT22;7805;49.554;7.632;2022-10-15T00:54:58;16.40;99.90
15413;DHT22;7805;49.554;7.632;2022-10-15T00:57:26;16.30;99.90
15413;DHT22;7805;49.554;7.632;2022-10-15T00:59:54;16.70;99.90
15413;DHT22;7805;49.554;7.632;2022-10-15T01:02:21;16.40;99.90
15413;DHT22;7805;49.554;7.632;2022-10-15T01:04:48;16.30;99.90
15413;DHT22;7805;49.554;7.632;2022-10-15T01:07:13;16.30;99.90
15413;DHT22;7805;49.554;7.632;2022-10-15T01:09:40;16.30;99.90
15413;DHT22;7805;49.554;7.632;2022-10-15T01:12:22;16.30;99.90
15413;DHT22;7805;49.554;7.632;2022-10-15T01:15:01;16.40;99.90
15413;DHT22;7805;49.554;7.632;2022-10-15T01:28:33;16.40;99.90
15413;DHT22;7805;49.554;7.632;2022-10-15T01:31:12;16.50;99.90
15413;DHT22;7805;49.554;7.632;2022-10-15T01:34:03;16.40;99.90
15413;DHT22;7805;49.554;7.632;2022-10-15T01:36:41;16.40;99.90
15413;DHT22;7805;49.554;7.632;2022-10-15T01:39:32;16.50;99.90
15413;DHT22;7805;49.554;7.632;2022-10-15T01:42:06;16.50;99.90
15413;DHT22;7805;49.554;7.632;2022-10-15T01:44:48;16.50;99.90
15413;DHT22;7805;49.554;7.632;2022-10-15T01:47:42;16.50;99.90
15413;DHT22;7805;49.554;7.632;2022-10-15T01:50:10;16.60;99.90
15413;DHT22;7805;49.554;7.632;2022-10-15T01:52:39;16.60;99.90
15413;DHT22;7805;49.554;7.632;2022-10-15T01:55:08;16.50;99.90
15413;DHT22;7805;49.554;7.632;2022-10-15T01:57:36;16.50;99.90
15413;DHT22;7805;49.554;7.632;2022-10-15T02:00:03;16.50;99.90
15413;DHT22;7805;49.554;7.632;2022-10-15T02:02:29;16.50;99.90
15413;DHT22;7805;49.554;7.632;2022-10-15T02:04:55;16.50;99.90
15413;DHT22;7805;49.554;7.632;2022-10-15T02:07:32;16.40;99.90
15413;DHT22;7805;49.554;7.632;2022-10-15T02:10:20;16.40;99.90
15413;DHT22;7805;49.554;7.632;2022-10-15T02:23:23;16.50;99.90
15413;DHT22;7805;49.554;7.632;2022-10-15T02:25:51;16.40;99.90
15413;DHT22;7805;49.554;7.632;2022-10-15T02:28:17;16.30;99.90
15413;DHT22;7805;49.554;7.632;2022-10-15T02:30:45;16.20;99.90
15413;DHT22;7805;49.554;7.632;2022-10-15T02:33:14;16.20;99.90
15413;DHT22;7805;49.554;7.632;2022-10-15T02:35:41;16.10;99.90
15413;DHT22;7805;49.554;7.632;2022-10-15T02:38:11;16.10;99.90
15413;DHT22;7805;49.554;7.632;2022-10-15T02:40:40;16.10;99.90
15413;DHT22;7805;49.554;7.632;2022-10-15T02:43:09;16.20;99.90
15413;DHT22;7805;49.554;7.632;2022-10-15T02:45:36;16.20;99.90
15413;DHT22;7805;49.554;7.632;2022-10-15T02:48:01;16.10;99.90
15413;DHT22;7805;49.554;7.632;2022-10-15T02:50:27;16.10;99.90
15413;DHT22;7805;49.554;7.632;2022-10-15T02:52:52;16.10;99.90
15413;DHT22;7805;49.554;7.632;2022-10-15T02:55:18;16.20;99.90
15413;DHT22;7805;49.554;7.632;2022-10-15T02:57:43;16.20;99.90
15413;DHT22;7805;49.554;7.632;2022-10-15T03:00:09;16.30;99.90
15413;DHT22;7805;49.554;7.632;2022-10-15T03:02:35;16.30;99.90
15413;DHT22;7805;49.554;7.632;2022-10-15T03:05:01;16.40;99.90
15413;DHT22;7805;49.554;7.632;2022-10-15T03:07:26;16.30;99.90
15413;DHT22;7805;49.554;7.632;2022-10-15T03:09:52;16.40;99.90
15413;DHT22;7805;49.554;7.632;2022-10-15T03:12:18;16.40;99.90
15413;DHT22;7805;49.554;7.632;2022-10-15T03:14:50;16.40;99.90
15413;DHT22;7805;49.554;7.632;2022-10-15T03:17:16;16.50;99.90
15413;DHT22;7805;49.554;7.632;2022-10-15T03:19:41;16.50;99.90
15413;DHT22;7805;49.554;7.632;2022-10-15T03:22:07;16.70;99.90
15413;DHT22;7805;49.554;7.632;2022-10-15T03:24:33;16.60;99.90
15413;DHT22;7805;49.554;7.632;2022-10-15T03:26:58;16.50;99.90
15413;DHT22;7805;49.554;7.632;2022-10-15T03:29:24;16.50;99.90
15413;DHT22;7805;49.554;7.632;2022-10-15T03:31:50;16.50;99.90
15413;DHT22;7805;49.554;7.632;2022-10-15T03:34:15;16.40;99.90
15413;DHT22;7805;49.554;7.632;2022-10-15T03:36:41;16.30;99.90
15413;DHT22;7805;49.554;7.632;2022-10-15T03:39:07;16.40;99.90
15413;DHT22;7805;49.554;7.632;2022-10-15T03:41:33;16.40;99.90
15413;DHT22;7805;49.554;7.632;2022-10-15T03:44:05;16.60;99.90
15413;DHT22;7805;49.554;7.632;2022-10-15T03:46:31;16.50;99.90
15413;DHT22;7805;49.554;7.632;2022-10-15T03:48:57;16.40;99.90
15413;DHT22;7805;49.554;7.632;2022-10-15T03:51:23;16.40;99.90
15413;DHT22;7805;49.554;7.632;2022-10-15T03:53:48;16.40;99.90
15413;DHT22;7805;49.554;7.632;2022-10-15T03:56:14;16.40;99.90
15413;DHT22;7805;49.554;7.632;2022-10-15T03:58:40;16.30;99.90
15413;DHT22;7805;49.554;7.632;2022-10-15T04:01:10;16.50;99.90
15413;DHT22;7805;49.554;7.632;2022-10-15T04:03:36;16.40;99.90
15413;DHT22;7805;49.554;7.632;2022-10-15T04:06:02;16.40;99.90
15413;DHT22;7805;49.554;7.632;2022-10-15T04:08:28;16.40;99.90
15413;DHT22;7805;49.554;7.632;2022-10-15T04:10:54;16.40;99.90
15413;DHT22;7805;49.554;7.632;2022-10-15T04:13:19;16.30;99.90
15413;DHT22;7805;49.554;7.632;2022-10-15T04:15:45;16.60;99.90
15413;DHT22;7805;49.554;7.632;2022-10-15T04:18:11;16.30;99.90
15413;DHT22;7805;49.554;7.632;2022-10-15T04:20:37;16.40;99.90
15413;DHT22;7805;49.554;7.632;2022-10-15T04:23:03;16.40;99.90
15413;DHT22;7805;49.554;7.632;2022-10-15T04:25:29;16.50;99.90
15413;DHT22;7805;49.554;7.632;2022-10-15T04:27:54;16.60;99.90
15413;DHT22;7805;49.554;7.632;2022-10-15T04:30:20;16.60;99.90
15413;DHT22;7805;49.554;7.632;2022-10-15T04:32:46;16.70;99.90
15413;DHT22;7805;49.554;7.632;2022-10-15T04:35:11;16.60;99.90
15413;DHT22;7805;49.554;7.632;2022-10-15T04:37:37;16.60;99.90
15413;DHT22;7805;49.554;7.632;2022-10-15T04:40:03;16.70;99.90
15413;DHT22;7805;49.554;7.632;2022-10-15T04:42:29;16.60;99.90
15413;DHT22;7805;49.554;7.632;2022-10-15T04:44:56;16.70;99.90
15413;DHT22;7805;49.554;7.632;2022-10-15T04:47:22;16.70;99.90
15413;DHT22;7805;49.554;7.632;2022-10-15T04:49:47;16.70;99.90
15413;DHT22;7805;49.554;7.632;2022-10-15T04:52:13;16.80;99.90
15413;DHT22;7805;49.554;7.632;2022-10-15T04:54:39;16.70;99.90
15413;DHT22;7805;49.554;7.632;2022-10-15T04:57:05;16.70;99.90
15413;DHT22;7805;49.554;7.632;2022-10-15T04:59:31;16.70;99.90
15413;DHT22;7805;49.554;7.632;2022-10-15T05:01:57;16.70;99.90
15413;DHT22;7805;49.554;7.632;2022-10-15T05:04:22;16.70;99.90
15413;DHT22;7805;49.554;7.632;2022-10-15T05:06:48;16.60;99.90
15413;DHT22;7805;49.554;7.632;2022-10-15T05:09:14;16.70;99.90
15413;DHT22;7805;49.554;7.632;2022-10-15T05:11:39;16.70;99.90
15413;DHT22;7805;49.554;7.632;2022-10-15T05:14:05;16.70;99.90
15413;DHT22;7805;49.554;7.632;2022-10-15T05:16:31;16.60;99.90
15413;DHT22;7805;49.554;7.632;2022-10-15T05:19:00;16.50;99.90
15413;DHT22;7805;49.554;7.632;2022-10-15T05:21:25;16.50;99.90
15413;DHT22;7805;49.554;7.632;2022-10-15T05:23:51;16.50;99.90
15413;DHT22;7805;49.554;7.632;2022-10-15T05:26:19;16.40;99.90
15413;DHT22;7805;49.554;7.632;2022-10-15T05:28:45;16.40;99.90
15413;DHT22;7805;49.554;7.632;2022-10-15T05:31:19;16.40;99.90
15413;DHT22;7805;49.554;7.632;2022-10-15T05:33:49;16.40;99.90
15413;DHT22;7805;49.554;7.632;2022-10-15T05:36:20;16.40;99.90
15413;DHT22;7805;49.554;7.632;2022-10-15T05:38:48;16.40;99.90
15413;DHT22;7805;49.554;7.632;2022-10-15T05:41:14;16.40;99.90
15413;DHT22;7805;49.554;7.632;2022-10-15T05:43:40;16.40;99.90
15413;DHT22;7805;49.554;7.632;2022-10-15T05:46:06;16.30;99.90
15413;DHT22;7805;49.554;7.632;2022-10-15T05:48:32;16.40;99.90
15413;DHT22;7805;49.554;7.632;2022-10-15T05:51:06;16.40;99.90
15413;DHT22;7805;49.554;7.632;2022-10-15T05:55:59;16.50;99.90
15413;DHT22;7805;49.554;7.632;2022-10-15T05:58:25;16.50;99.90
15413;DHT22;7805;49.554;7.632;2022-10-15T06:00:59;16.50;99.90
15413;DHT22;7805;49.554;7.632;2022-10-15T06:03:26;16.50;99.90
15413;DHT22;7805;49.554;7.632;2022-10-15T06:05:52;16.50;99.90
15413;DHT22;7805;49.554;7.632;2022-10-15T06:08:18;16.40;99.90
15413;DHT22;7805;49.554;7.632;2022-10-15T06:10:45;16.50;99.90
15413;DHT22;7805;49.554;7.632;2022-10-15T06:13:11;16.40;99.90
15413;DHT22;7805;49.554;7.632;2022-10-15T06:15:41;16.50;99.90
15413;DHT22;7805;49.554;7.632;2022-10-15T06:18:07;16.40;99.90
15413;DHT22;7805;49.554;7.632;2022-10-15T06:20:34;16.50;99.90
15413;DHT22;7805;49.554;7.632;2022-10-15T06:23:00;16.40;99.90
15413;DHT22;7805;49.554;7.632;2022-10-15T06:25:26;16.40;99.90
15413;DHT22;7805;49.554;7.632;2022-10-15T06:27:52;16.40;99.90
15413;DHT22;7805;49.554;7.632;2022-10-15T06:30:18;16.50;99.90
15413;DHT22;7805;49.554;7.632;2022-10-15T06:32:48;16.50;99.90
15413;DHT22;7805;49.554;7.632;2022-10-15T06:35:14;16.50;99.90
15413;DHT22;7805;49.554;7.632;2022-10-15T06:37:40;16.50;99.90
15413;DHT22;7805;49.554;7.632;2022-10-15T06:40:06;16.50;99.90
15413;DHT22;7805;49.554;7.632;2022-10-15T06:42:32;16.50;99.90
15413;DHT22;7805;49.554;7.632;2022-10-15T06:44:57;16.50;99.90
15413;DHT22;7805;49.554;7.632;2022-10-15T06:47:23;16.50;99.90
15413;DHT22;7805;49.554;7.632;2022-10-15T06:49:48;16.50;99.90
15413;DHT22;7805;49.554;7.632;2022-10-15T06:52:14;16.50;99.90
15413;DHT22;7805;49.554;7.632;2022-10-15T06:54:40;16.50;99.90
15413;DHT22;7805;49.554;7.632;2022-10-15T06:57:05;16.50;99.90
15413;DHT22;7805;49.554;7.632;2022-10-15T06:59:31;16.50;99.90
15413;DHT22;7805;49.554;7.632;2022-10-15T07:01:56;16.50;99.90
15413;DHT22;7805;49.554;7.632;2022-10-15T07:04:22;16.50;99.90
15413;DHT22;7805;49.554;7.632;2022-10-15T07:06:48;16.50;99.90
15413;DHT22;7805;49.554;7.632;2022-10-15T07:09:14;16.50;99.90
15413;DHT22;7805;49.554;7.632;2022-10-15T07:11:40;16.40;99.90
15413;DHT22;7805;49.554;7.632;2022-10-15T07:14:08;16.40;99.90
15413;DHT22;7805;49.554;7.632;2022-10-15T07:16:33;16.50;99.90
15413;DHT22;7805;49.554;7.632;2022-10-15T07:18:59;16.50;99.90
15413;DHT22;7805;49.554;7.632;2022-10-15T07:21:25;16.50;99.90
15413;DHT22;7805;49.554;7.632;2022-10-15T07:23:50;16.50;99.90
15413;DHT22;7805;49.554;7.632;2022-10-15T07:26:16;16.60;99.90
15413;DHT22;7805;49.554;7.632;2022-10-15T07:28:42;19.00;99.90
15413;DHT22;7805;49.554;7.632;2022-10-15T07:31:07;16.60;99.90
15413;DHT22;7805;49.554;7.632;2022-10-15T07:33:34;16.60;99.90
15413;DHT22;7805;49.554;7.632;2022-10-15T07:36:10;16.60;99.90
15413;DHT22;7805;49.554;7.632;2022-10-15T07:38:37;16.70;99.90
15413;DHT22;7805;49.554;7.632;2022-10-15T07:41:04;16.80;99.90
15413;DHT22;7805;49.554;7.632;2022-10-15T07:43:30;16.80;99.90
15413;DHT22;7805;49.554;7.632;2022-10-15T07:45:56;16.80;99.90
15413;DHT22;7805;49.554;7.632;2022-10-15T07:48:22;16.80;99.90
15413;DHT22;7805;49.554;7.632;2022-10-15T07:50:53;16.90;99.90
15413;DHT22;7805;49.554;7.632;2022-10-15T07:53:19;16.90;99.90
15413;DHT22;7805;49.554;7.632;2022-10-15T07:55:45;16.90;99.90
15413;DHT22;7805;49.554;7.632;2022-10-15T07:58:10;17.00;99.90
15413;DHT22;7805;49.554;7.632;2022-10-15T08:00:36;17.10;99.90
15413;DHT22;7805;49.554;7.632;2022-10-15T08:03:01;17.10;99.90
15413;DHT22;7805;49.554;7.632;2022-10-15T08:05:27;17.10;99.90
15413;DHT22;7805;49.554;7.632;2022-10-15T08:07:52;17.30;99.90
15413;DHT22;7805;49.554;7.632;2022-10-15T08:10:18;17.10;99.90
15413;DHT22;7805;49.554;7.632;2022-10-15T08:12:44;17.00;99.90
15413;DHT22;7805;49.554;7.632;2022-10-15T08:15:09;15.20;99.90
15413;DHT22;7805;49.554;7.632;2022-10-15T08:17:35;17.00;99.90
15413;DHT22;7805;49.554;7.632;2022-10-15T08:20:01;17.00;99.90
15413;DHT22;7805;49.554;7.632;2022-10-15T08:22:26;17.00;99.90
15413;DHT22;7805;49.554;7.632;2022-10-15T08:24:52;17.10;99.90
15413;DHT22;7805;49.554;7.632;2022-10-15T08:27:18;17.20;99.90
15413;DHT22;7805;49.554;7.632;2022-10-15T08:29:43;17.20;99.90
15413;DHT22;7805;49.554;7.632;2022-10-15T08:32:11;17.30;99.90
15413;DHT22;7805;49.554;7.632;2022-10-15T08:34:37;17.40;99.90
15413;DHT22;7805;49.554;7.632;2022-10-15T08:37:02;17.40;99.90
15413;DHT22;7805;49.554;7.632;2022-10-15T08:39:31;17.40;99.90
15413;DHT22;7805;49.554;7.632;2022-10-15T08:41:59;17.50;99.90
15413;DHT22;7805;49.554;7.632;2022-10-15T08:44:35;17.70;99.90
15413;DHT22;7805;49.554;7.632;2022-10-15T08:50:02;17.80;99.90
15413;DHT22;7805;49.554;7.632;2022-10-15T08:52:43;17.70;99.90
15413;DHT22;7805;49.554;7.632;2022-10-15T08:55:16;17.70;99.90
15413;DHT22;7805;49.554;7.632;2022-10-15T08:57:48;17.80;99.90
15413;DHT22;7805;49.554;7.632;2022-10-15T09:00:22;17.70;99.90
15413;DHT22;7805;49.554;7.632;2022-10-15T09:03:23;17.70;99.90
15413;DHT22;7805;49.554;7.632;2022-10-15T09:05:51;17.60;99.90
15413;DHT22;7805;49.554;7.632;2022-10-15T09:08:27;17.70;99.90
15413;DHT22;7805;49.554;7.632;2022-10-15T09:10:59;17.90;99.90
15413;DHT22;7805;49.554;7.632;2022-10-15T09:13:40;17.70;99.90
15413;DHT22;7805;49.554;7.632;2022-10-15T09:18:42;17.80;99.90
15413;DHT22;7805;49.554;7.632;2022-10-15T09:21:09;17.80;99.90
15413;DHT22;7805;49.554;7.632;2022-10-15T09:23:36;17.90;99.90
15413;DHT22;7805;49.554;7.632;2022-10-15T09:28:43;17.80;99.90
15413;DHT22;7805;49.554;7.632;2022-10-15T09:31:14;17.80;99.90
15413;DHT22;7805;49.554;7.632;2022-10-15T09:33:49;17.90;99.90
15413;DHT22;7805;49.554;7.632;2022-10-15T09:39:25;18.10;99.90
15413;DHT22;7805;49.554;7.632;2022-10-15T09:44:38;17.90;99.90
15413;DHT22;7805;49.554;7.632;2022-10-15T09:47:23;17.90;99.90
15413;DHT22;7805;49.554;7.632;2022-10-15T09:49:49;18.00;99.90
15413;DHT22;7805;49.554;7.632;2022-10-15T09:58:18;18.80;99.90
15413;DHT22;7805;49.554;7.632;2022-10-15T10:03:23;19.10;99.90
15413;DHT22;7805;49.554;7.632;2022-10-15T10:05:49;19.40;99.90
15413;DHT22;7805;49.554;7.632;2022-10-15T10:08:16;19.50;99.90
15413;DHT22;7805;49.554;7.632;2022-10-15T10:11:03;19.30;99.90
15413;DHT22;7805;49.554;7.632;2022-10-15T10:13:30;19.40;99.90
15413;DHT22;7805;49.554;7.632;2022-10-15T10:16:02;19.30;99.90
15413;DHT22;7805;49.554;7.632;2022-10-15T10:18:29;19.20;99.90
15413;DHT22;7805;49.554;7.632;2022-10-15T10:21:00;19.20;99.90
15413;DHT22;7805;49.554;7.632;2022-10-15T10:23:34;19.20;99.90
15413;DHT22;7805;49.554;7.632;2022-10-15T10:26:05;19.20;99.90
15413;DHT22;7805;49.554;7.632;2022-10-15T10:28:36;19.20;99.90
15413;DHT22;7805;49.554;7.632;2022-10-15T10:31:07;19.10;99.90
15413;DHT22;7805;49.554;7.632;2022-10-15T10:33:51;19.00;99.90
15413;DHT22;7805;49.554;7.632;2022-10-15T10:39:02;18.90;99.90
15413;DHT22;7805;49.554;7.632;2022-10-15T10:44:40;19.00;99.90
15413;DHT22;7805;49.554;7.632;2022-10-15T10:47:19;19.00;99.90
15413;DHT22;7805;49.554;7.632;2022-10-15T10:49:55;19.10;99.90
15413;DHT22;7805;49.554;7.632;2022-10-15T10:52:28;19.00;99.90
15413;DHT22;7805;49.554;7.632;2022-10-15T10:54:58;19.00;99.90
15413;DHT22;7805;49.554;7.632;2022-10-15T10:57:55;18.90;99.90
15413;DHT22;7805;49.554;7.632;2022-10-15T11:00:40;18.90;99.90
15413;DHT22;7805;49.554;7.632;2022-10-15T11:05:49;19.10;99.90
15413;DHT22;7805;49.554;7.632;2022-10-15T11:08:33;19.10;99.90
15413;DHT22;7805;49.554;7.632;2022-10-15T11:13:53;19.10;99.90
15413;DHT22;7805;49.554;7.632;2022-10-15T11:16:31;19.20;99.90
15413;DHT22;7805;49.554;7.632;2022-10-15T11:19:11;19.50;99.90
15413;DHT22;7805;49.554;7.632;2022-10-15T11:27:04;18.80;99.90
15413;DHT22;7805;49.554;7.632;2022-10-15T11:29:55;18.70;99.90
15413;DHT22;7805;49.554;7.632;2022-10-15T11:44:23;18.30;99.90
15413;DHT22;7805;49.554;7.632;2022-10-15T11:49:39;18.20;99.90
15413;DHT22;7805;49.554;7.632;2022-10-15T11:52:28;18.20;99.90
15413;DHT22;7805;49.554;7.632;2022-10-15T11:57:38;18.20;99.90
15413;DHT22;7805;49.554;7.632;2022-10-15T12:02:49;18.40;99.90
15413;DHT22;7805;49.554;7.632;2022-10-15T12:05:34;18.50;99.90
15413;DHT22;7805;49.554;7.632;2022-10-15T12:08:02;18.60;99.90
15413;DHT22;7805;49.554;7.632;2022-10-15T12:13:19;18.40;99.90
15413;DHT22;7805;49.554;7.632;2022-10-15T12:16:05;18.40;99.90
15413;DHT22;7805;49.554;7.632;2022-10-15T12:18:44;18.30;99.90
15413;DHT22;7805;49.554;7.632;2022-10-15T12:21:40;18.30;99.90
15413;DHT22;7805;49.554;7.632;2022-10-15T12:27:25;18.30;99.90
15413;DHT22;7805;49.554;7.632;2022-10-15T12:30:12;18.30;99.90
15413;DHT22;7805;49.554;7.632;2022-10-15T12:32:47;18.30;99.90
15413;DHT22;7805;49.554;7.632;2022-10-15T12:37:39;18.40;99.90
15413;DHT22;7805;49.554;7.632;2022-10-15T12:40:28;18.30;99.90
15413;DHT22;7805;49.554;7.632;2022-10-15T12:43:01;19.40;99.90
15413;DHT22;7805;49.554;7.632;2022-10-15T12:50:34;18.20;99.90
15413;DHT22;7805;49.554;7.632;2022-10-15T12:53:05;18.20;99.90
15413;DHT22;7805;49.554;7.632;2022-10-15T12:58:38;18.30;99.90
15413;DHT22;7805;49.554;7.632;2022-10-15T13:14:31;17.80;99.90
15413;DHT22;7805;49.554;7.632;2022-10-15T13:17:00;17.80;99.90
15413;DHT22;7805;49.554;7.632;2022-10-15T13:19:29;17.90;99.90
15413;DHT22;7805;49.554;7.632;2022-10-15T13:21:59;17.80;99.90
15413;DHT22;7805;49.554;7.632;2022-10-15T13:24:27;17.90;99.90
15413;DHT22;7805;49.554;7.632;2022-10-15T13:26:56;18.10;99.90
15413;DHT22;7805;49.554;7.632;2022-10-15T13:29:26;17.90;99.90
15413;DHT22;7805;49.554;7.632;2022-10-15T13:31:54;18.10;99.90
15413;DHT22;7805;49.554;7.632;2022-10-15T13:34:34;17.90;99.90
15413;DHT22;7805;49.554;7.632;2022-10-15T13:37:03;17.90;99.90
15413;DHT22;7805;49.554;7.632;2022-10-15T13:42:14;18.10;99.90
15413;DHT22;7805;49.554;7.632;2022-10-15T13:44:40;18.00;99.90
15413;DHT22;7805;49.554;7.632;2022-10-15T13:49:49;18.00;99.90
15413;DHT22;7805;49.554;7.632;2022-10-15T13:52:14;18.10;99.90
15413;DHT22;7805;49.554;7.632;2022-10-15T13:54:44;18.20;99.90
15413;DHT22;7805;49.554;7.632;2022-10-15T13:57:13;18.20;99.90
15413;DHT22;7805;49.554;7.632;2022-10-15T13:59:43;18.30;99.90
15413;DHT22;7805;49.554;7.632;2022-10-15T14:02:10;18.30;99.90
15413;DHT22;7805;49.554;7.632;2022-10-15T14:04:37;18.30;99.90
15413;DHT22;7805;49.554;7.632;2022-10-15T14:07:23;18.30;99.90
15413;DHT22;7805;49.554;7.632;2022-10-15T14:09:51;18.20;99.90
15413;DHT22;7805;49.554;7.632;2022-10-15T14:12:17;18.10;99.90
15413;DHT22;7805;49.554;7.632;2022-10-15T14:14:44;18.10;99.90
15413;DHT22;7805;49.554;7.632;2022-10-15T14:17:22;18.10;99.90
15413;DHT22;7805;49.554;7.632;2022-10-15T14:19:55;18.10;99.90
15413;DHT22;7805;49.554;7.632;2022-10-15T14:22:23;18.10;99.90
15413;DHT22;7805;49.554;7.632;2022-10-15T14:24:51;18.10;99.90
15413;DHT22;7805;49.554;7.632;2022-10-15T14:27:21;18.40;99.90
15413;DHT22;7805;49.554;7.632;2022-10-15T14:29:49;18.20;99.90
15413;DHT22;7805;49.554;7.632;2022-10-15T14:34:59;18.30;99.90
15413;DHT22;7805;49.554;7.632;2022-10-15T14:42:32;18.30;99.90
15413;DHT22;7805;49.554;7.632;2022-10-15T14:45:17;18.30;99.90
15413;DHT22;7805;49.554;7.632;2022-10-15T14:47:48;18.20;99.90
15413;DHT22;7805;49.554;7.632;2022-10-15T14:50:16;18.20;99.90
15413;DHT22;7805;49.554;7.632;2022-10-15T14:52:48;18.10;99.90
15413;DHT22;7805;49.554;7.632;2022-10-15T14:55:36;18.00;99.90
15413;DHT22;7805;49.554;7.632;2022-10-15T14:58:17;18.00;99.90
15413;DHT22;7805;49.554;7.632;2022-10-15T15:00:48;18.00;99.90
15413;DHT22;7805;49.554;7.632;2022-10-15T15:03:21;18.20;99.90
15413;DHT22;7805;49.554;7.632;2022-10-15T15:05:52;18.00;99.90
15413;DHT22;7805;49.554;7.632;2022-10-15T15:08:19;18.00;99.90
15413;DHT22;7805;49.554;7.632;2022-10-15T15:10:45;18.00;99.90
15413;DHT22;7805;49.554;7.632;2022-10-15T15:13:17;17.90;99.90
15413;DHT22;7805;49.554;7.632;2022-10-15T15:15:44;18.00;99.90
15413;DHT22;7805;49.554;7.632;2022-10-15T15:18:10;18.00;99.90
15413;DHT22;7805;49.554;7.632;2022-10-15T15:20:35;18.10;99.90
15413;DHT22;7805;49.554;7.632;2022-10-15T15:23:01;18.00;99.90
15413;DHT22;7805;49.554;7.632;2022-10-15T15:25:33;18.00;99.90
15413;DHT22;7805;49.554;7.632;2022-10-15T15:28:00;18.00;99.90
15413;DHT22;7805;49.554;7.632;2022-10-15T15:30:28;18.00;99.90
15413;DHT22;7805;49.554;7.632;2022-10-15T15:32:54;18.00;99.90
15413;DHT22;7805;49.554;7.632;2022-10-15T15:35:24;18.10;99.90
15413;DHT22;7805;49.554;7.632;2022-10-15T15:37:51;18.20;99.90
15413;DHT22;7805;49.554;7.632;2022-10-15T15:40:17;18.00;99.90
15413;DHT22;7805;49.554;7.632;2022-10-15T15:42:44;18.00;99.90
15413;DHT22;7805;49.554;7.632;2022-10-15T15:45:24;18.20;99.90
15413;DHT22;7805;49.554;7.632;2022-10-15T15:47:49;18.00;99.90
15413;DHT22;7805;49.554;7.632;2022-10-15T15:50:17;18.00;99.90
15413;DHT22;7805;49.554;7.632;2022-10-15T15:52:42;17.90;99.90
15413;DHT22;7805;49.554;7.632;2022-10-15T15:55:09;17.90;99.90
15413;DHT22;7805;49.554;7.632;2022-10-15T15:57:35;17.90;99.90
15413;DHT22;7805;49.554;7.632;2022-10-15T16:00:00;18.00;99.90
15413;DHT22;7805;49.554;7.632;2022-10-15T16:02:26;17.90;99.90
15413;DHT22;7805;49.554;7.632;2022-10-15T16:04:52;17.80;99.90
15413;DHT22;7805;49.554;7.632;2022-10-15T16:07:17;17.80;99.90
15413;DHT22;7805;49.554;7.632;2022-10-15T16:09:43;17.90;99.90
15413;DHT22;7805;49.554;7.632;2022-10-15T16:12:09;17.80;99.90
15413;DHT22;7805;49.554;7.632;2022-10-15T16:14:34;17.80;99.90
15413;DHT22;7805;49.554;7.632;2022-10-15T16:17:00;17.80;99.90
15413;DHT22;7805;49.554;7.632;2022-10-15T16:19:25;17.90;99.90
15413;DHT22;7805;49.554;7.632;2022-10-15T16:21:51;17.70;99.90
15413;DHT22;7805;49.554;7.632;2022-10-15T16:24:17;17.60;99.90
15413;DHT22;7805;49.554;7.632;2022-10-15T16:26:42;17.70;99.90
15413;DHT22;7805;49.554;7.632;2022-10-15T16:29:08;17.60;99.90
15413;DHT22;7805;49.554;7.632;2022-10-15T16:31:34;17.60;99.90
15413;DHT22;7805;49.554;7.632;2022-10-15T16:34:04;17.70;99.90
15413;DHT22;7805;49.554;7.632;2022-10-15T16:36:30;17.60;99.90
15413;DHT22;7805;49.554;7.632;2022-10-15T16:38:56;17.70;99.90
15413;DHT22;7805;49.554;7.632;2022-10-15T16:41:22;17.70;99.90
15413;DHT22;7805;49.554;7.632;2022-10-15T16:43:48;17.60;99.90
15413;DHT22;7805;49.554;7.632;2022-10-15T16:46:15;17.60;99.90
15413;DHT22;7805;49.554;7.632;2022-10-15T16:48:41;17.60;99.90
15413;DHT22;7805;49.554;7.632;2022-10-15T16:51:14;17.60;99.90
15413;DHT22;7805;49.554;7.632;2022-10-15T16:53:42;17.60;99.90
15413;DHT22;7805;49.554;7.632;2022-10-15T16:58:37;18.90;99.90
15413;DHT22;7805;49.554;7.632;2022-10-15T17:01:06;17.60;99.90
15413;DHT22;7805;49.554;7.632;2022-10-15T17:03:33;17.60;99.90
15413;DHT22;7805;49.554;7.632;2022-10-15T17:06:01;17.60;99.90
15413;DHT22;7805;49.554;7.632;2022-10-15T17:08:35;17.60;99.90
15413;DHT22;7805;49.554;7.632;2022-10-15T17:11:15;17.60;99.90
15413;DHT22;7805;49.554;7.632;2022-10-15T17:13:41;17.60;99.90
15413;DHT22;7805;49.554;7.632;2022-10-15T17:18:33;17.50;99.90
15413;DHT22;7805;49.554;7.632;2022-10-15T17:20:59;17.60;99.90
15413;DHT22;7805;49.554;7.632;2022-10-15T17:23:24;17.50;99.90
15413;DHT22;7805;49.554;7.632;2022-10-15T17:25:50;17.60;99.90
15413;DHT22;7805;49.554;7.632;2022-10-15T17:28:15;17.60;99.90
15413;DHT22;7805;49.554;7.632;2022-10-15T17:30:41;17.60;99.90
15413;DHT22;7805;49.554;7.632;2022-10-15T17:33:06;17.60;99.90
15413;DHT22;7805;49.554;7.632;2022-10-15T17:35:35;17.60;99.90
15413;DHT22;7805;49.554;7.632;2022-10-15T17:38:01;17.70;99.90
15413;DHT22;7805;49.554;7.632;2022-10-15T17:40:27;17.70;99.90
15413;DHT22;7805;49.554;7.632;2022-10-15T17:42:52;17.70;99.90
15413;DHT22;7805;49.554;7.632;2022-10-15T17:45:21;17.70;99.90
15413;DHT22;7805;49.554;7.632;2022-10-15T17:47:47;17.70;99.90
15413;DHT22;7805;49.554;7.632;2022-10-15T17:50:13;17.70;99.90
15413;DHT22;7805;49.554;7.632;2022-10-15T17:52:39;17.70;99.90
15413;DHT22;7805;49.554;7.632;2022-10-15T17:55:05;17.60;99.90
15413;DHT22;7805;49.554;7.632;2022-10-15T17:57:31;17.70;99.90
15413;DHT22;7805;49.554;7.632;2022-10-15T17:59:56;17.60;99.90
15413;DHT22;7805;49.554;7.632;2022-10-15T18:02:22;17.60;99.90
15413;DHT22;7805;49.554;7.632;2022-10-15T18:04:47;17.90;99.90
15413;DHT22;7805;49.554;7.632;2022-10-15T18:07:15;17.60;99.90
15413;DHT22;7805;49.554;7.632;2022-10-15T18:09:42;18.90;99.90